Hoboksar, China
Current Conditions -  °F | °C
As of 1:00 PM on Wednesday 22 Oct 2014 (Local Time) from ZWWW Reporting Station
Smoke Smoke  
Wind Chill: 59°   Ceiling: Unl
Heat Index: 59°   Visibility: 3mi
Dew Point: 41°   Wind: 7mph
Humidity: 51%   Direction: 20°NNE
Pressure: 30.24"   Gusts: NA
Location:  46.78°N, 85.72°E
Report Text: ZWWW 220500Z 02003MPS 330V070 5000 FU NSC 15/05 Q1024 NOSIG
Loading
Personal Weather Stations






























Interactive Weather Map
Tropical Storm Tracking
New forecast layout! Learn more

10-Day Weather Forecast

Advertisements
Track Severe Weather on mobile